sensor_id;sensor_type;location;lat;lon;timestamp;P1;durP1;ratioP1;P2;durP2;ratioP2
30048;SDS011;16879;50.852;15.602;2023-02-15T00:00:03;114.35;;;39.05;;
30048;SDS011;16879;50.852;15.602;2023-02-15T00:02:30;130.68;;;45.17;;
30048;SDS011;16879;50.852;15.602;2023-02-15T00:04:57;145.55;;;47.95;;
30048;SDS011;16879;50.852;15.602;2023-02-15T00:07:23;128.88;;;43.63;;
30048;SDS011;16879;50.852;15.602;2023-02-15T00:09:49;120.18;;;39.42;;
30048;SDS011;16879;50.852;15.602;2023-02-15T00:12:15;133.57;;;42.85;;
30048;SDS011;16879;50.852;15.602;2023-02-15T00:14:42;142.95;;;52.30;;
30048;SDS011;16879;50.852;15.602;2023-02-15T00:17:08;123.93;;;43.58;;
30048;SDS011;16879;50.852;15.602;2023-02-15T00:19:34;98.78;;;39.65;;
30048;SDS011;16879;50.852;15.602;2023-02-15T00:22:01;108.32;;;35.60;;
30048;SDS011;16879;50.852;15.602;2023-02-15T00:24:27;67.53;;;25.05;;
30048;SDS011;16879;50.852;15.602;2023-02-15T00:26:53;50.65;;;21.45;;
30048;SDS011;16879;50.852;15.602;2023-02-15T00:29:19;44.78;;;20.48;;
30048;SDS011;16879;50.852;15.602;2023-02-15T00:31:46;42.85;;;20.85;;
30048;SDS011;16879;50.852;15.602;2023-02-15T00:34:17;45.92;;;20.60;;
30048;SDS011;16879;50.852;15.602;2023-02-15T00:36:44;43.17;;;18.63;;
30048;SDS011;16879;50.852;15.602;2023-02-15T00:39:10;55.15;;;22.30;;
30048;SDS011;16879;50.852;15.602;2023-02-15T00:41:37;48.83;;;19.08;;
30048;SDS011;16879;50.852;15.602;2023-02-15T00:44:03;46.90;;;19.40;;
30048;SDS011;16879;50.852;15.602;2023-02-15T00:46:30;45.28;;;19.27;;
30048;SDS011;16879;50.852;15.602;2023-02-15T00:48:56;54.00;;;20.45;;
30048;SDS011;16879;50.852;15.602;2023-02-15T00:51:22;43.35;;;21.13;;
30048;SDS011;16879;50.852;15.602;2023-02-15T00:53:49;42.30;;;18.08;;
30048;SDS011;16879;50.852;15.602;2023-02-15T00:56:15;44.42;;;20.15;;
30048;SDS011;16879;50.852;15.602;2023-02-15T00:58:41;44.38;;;19.08;;
30048;SDS011;16879;50.852;15.602;2023-02-15T01:01:17;49.33;;;22.77;;
30048;SDS011;16879;50.852;15.602;2023-02-15T01:03:44;59.33;;;27.33;;
30048;SDS011;16879;50.852;15.602;2023-02-15T01:06:14;102.22;;;36.20;;
30048;SDS011;16879;50.852;15.602;2023-02-15T01:08:41;99.05;;;34.47;;
30048;SDS011;16879;50.852;15.602;2023-02-15T01:11:09;95.00;;;32.60;;
30048;SDS011;16879;50.852;15.602;2023-02-15T01:13:36;119.90;;;39.95;;
30048;SDS011;16879;50.852;15.602;2023-02-15T01:16:02;137.00;;;42.55;;
30048;SDS011;16879;50.852;15.602;2023-02-15T01:18:28;127.78;;;42.33;;
30048;SDS011;16879;50.852;15.602;2023-02-15T01:20:55;98.72;;;42.38;;
30048;SDS011;16879;50.852;15.602;2023-02-15T01:23:21;86.47;;;40.35;;
30048;SDS011;16879;50.852;15.602;2023-02-15T01:25:47;120.90;;;50.72;;
30048;SDS011;16879;50.852;15.602;2023-02-15T01:28:13;121.95;;;46.92;;
30048;SDS011;16879;50.852;15.602;2023-02-15T01:30:39;89.93;;;40.20;;
30048;SDS011;16879;50.852;15.602;2023-02-15T01:33:05;94.10;;;39.83;;
30048;SDS011;16879;50.852;15.602;2023-02-15T01:35:32;106.85;;;47.45;;
30048;SDS011;16879;50.852;15.602;2023-02-15T01:37:58;86.68;;;39.40;;
30048;SDS011;16879;50.852;15.602;2023-02-15T01:40:24;108.72;;;43.55;;
30048;SDS011;16879;50.852;15.602;2023-02-15T01:42:51;91.55;;;42.70;;
30048;SDS011;16879;50.852;15.602;2023-02-15T01:45:20;89.05;;;38.85;;
30048;SDS011;16879;50.852;15.602;2023-02-15T01:50:17;99.25;;;42.58;;
30048;SDS011;16879;50.852;15.602;2023-02-15T01:53:07;65.78;;;32.70;;
30048;SDS011;16879;50.852;15.602;2023-02-15T01:55:38;77.95;;;38.00;;
30048;SDS011;16879;50.852;15.602;2023-02-15T01:58:05;79.40;;;40.30;;
30048;SDS011;16879;50.852;15.602;2023-02-15T02:00:34;76.85;;;37.10;;
30048;SDS011;16879;50.852;15.602;2023-02-15T02:03:07;104.55;;;43.95;;
30048;SDS011;16879;50.852;15.602;2023-02-15T02:05:33;103.95;;;42.30;;
30048;SDS011;16879;50.852;15.602;2023-02-15T02:08:00;80.28;;;39.55;;
30048;SDS011;16879;50.852;15.602;2023-02-15T02:10:27;147.93;;;44.70;;
30048;SDS011;16879;50.852;15.602;2023-02-15T02:12:55;92.03;;;36.55;;
30048;SDS011;16879;50.852;15.602;2023-02-15T02:15:32;77.30;;;36.95;;
30048;SDS011;16879;50.852;15.602;2023-02-15T02:26:13;87.80;;;33.88;;
30048;SDS011;16879;50.852;15.602;2023-02-15T02:41:36;75.75;;;33.95;;
30048;SDS011;16879;50.852;15.602;2023-02-15T02:44:29;79.30;;;36.45;;
30048;SDS011;16879;50.852;15.602;2023-02-15T02:47:18;66.35;;;30.23;;
30048;SDS011;16879;50.852;15.602;2023-02-15T02:49:47;88.95;;;33.45;;
30048;SDS011;16879;50.852;15.602;2023-02-15T02:55:10;64.43;;;31.00;;
30048;SDS011;16879;50.852;15.602;2023-02-15T02:57:39;79.80;;;32.63;;
30048;SDS011;16879;50.852;15.602;2023-02-15T03:00:07;71.20;;;33.30;;
30048;SDS011;16879;50.852;15.602;2023-02-15T03:02:38;62.75;;;29.73;;
30048;SDS011;16879;50.852;15.602;2023-02-15T03:05:06;65.97;;;29.90;;
30048;SDS011;16879;50.852;15.602;2023-02-15T03:07:33;82.30;;;30.83;;
30048;SDS011;16879;50.852;15.602;2023-02-15T03:10:02;61.13;;;28.55;;
30048;SDS011;16879;50.852;15.602;2023-02-15T03:12:33;57.35;;;28.90;;
30048;SDS011;16879;50.852;15.602;2023-02-15T03:17:31;81.53;;;33.78;;
30048;SDS011;16879;50.852;15.602;2023-02-15T03:19:58;84.25;;;38.20;;
30048;SDS011;16879;50.852;15.602;2023-02-15T03:22:28;79.10;;;33.70;;
30048;SDS011;16879;50.852;15.602;2023-02-15T03:27:22;78.47;;;35.17;;
30048;SDS011;16879;50.852;15.602;2023-02-15T03:29:52;85.65;;;34.25;;
30048;SDS011;16879;50.852;15.602;2023-02-15T03:32:19;86.47;;;41.30;;
30048;SDS011;16879;50.852;15.602;2023-02-15T03:34:46;85.63;;;41.42;;
30048;SDS011;16879;50.852;15.602;2023-02-15T03:37:19;104.80;;;46.67;;
30048;SDS011;16879;50.852;15.602;2023-02-15T03:39:52;100.20;;;46.10;;
30048;SDS011;16879;50.852;15.602;2023-02-15T03:42:25;113.82;;;43.35;;
30048;SDS011;16879;50.852;15.602;2023-02-15T03:45:01;90.63;;;42.90;;
30048;SDS011;16879;50.852;15.602;2023-02-15T03:47:30;101.50;;;46.60;;
30048;SDS011;16879;50.852;15.602;2023-02-15T03:49:59;67.47;;;37.35;;
30048;SDS011;16879;50.852;15.602;2023-02-15T03:52:26;133.05;;;46.78;;
30048;SDS011;16879;50.852;15.602;2023-02-15T03:54:54;84.07;;;39.38;;
30048;SDS011;16879;50.852;15.602;2023-02-15T04:00:09;115.10;;;42.13;;
30048;SDS011;16879;50.852;15.602;2023-02-15T04:03:00;104.20;;;40.30;;
30048;SDS011;16879;50.852;15.602;2023-02-15T04:05:32;88.70;;;40.55;;
30048;SDS011;16879;50.852;15.602;2023-02-15T04:07:58;85.82;;;41.95;;
30048;SDS011;16879;50.852;15.602;2023-02-15T04:10:25;62.53;;;32.25;;
30048;SDS011;16879;50.852;15.602;2023-02-15T04:13:10;64.57;;;33.60;;
30048;SDS011;16879;50.852;15.602;2023-02-15T04:15:36;64.10;;;29.15;;
30048;SDS011;16879;50.852;15.602;2023-02-15T04:18:21;78.22;;;35.30;;
30048;SDS011;16879;50.852;15.602;2023-02-15T04:21:05;69.85;;;31.45;;
30048;SDS011;16879;50.852;15.602;2023-02-15T04:23:50;64.90;;;32.30;;
30048;SDS011;16879;50.852;15.602;2023-02-15T04:26:34;68.65;;;30.58;;
30048;SDS011;16879;50.852;15.602;2023-02-15T04:29:00;83.70;;;36.30;;
30048;SDS011;16879;50.852;15.602;2023-02-15T04:31:27;71.10;;;36.63;;
30048;SDS011;16879;50.852;15.602;2023-02-15T04:33:53;76.13;;;34.50;;
30048;SDS011;16879;50.852;15.602;2023-02-15T04:36:19;84.95;;;37.67;;
30048;SDS011;16879;50.852;15.602;2023-02-15T04:38:45;71.55;;;33.13;;
30048;SDS011;16879;50.852;15.602;2023-02-15T04:41:11;62.50;;;28.27;;
30048;SDS011;16879;50.852;15.602;2023-02-15T04:43:38;69.13;;;33.40;;
30048;SDS011;16879;50.852;15.602;2023-02-15T04:46:04;68.40;;;30.65;;
30048;SDS011;16879;50.852;15.602;2023-02-15T04:48:30;55.83;;;31.10;;
30048;SDS011;16879;50.852;15.602;2023-02-15T04:50:56;64.88;;;29.63;;
30048;SDS011;16879;50.852;15.602;2023-02-15T04:53:22;74.93;;;34.60;;
30048;SDS011;16879;50.852;15.602;2023-02-15T04:55:49;56.33;;;30.95;;
30048;SDS011;16879;50.852;15.602;2023-02-15T04:58:15;65.97;;;32.25;;
30048;SDS011;16879;50.852;15.602;2023-02-15T05:00:41;60.67;;;31.58;;
30048;SDS011;16879;50.852;15.602;2023-02-15T05:03:07;59.30;;;29.15;;
30048;SDS011;16879;50.852;15.602;2023-02-15T05:05:33;64.68;;;31.65;;
30048;SDS011;16879;50.852;15.602;2023-02-15T05:07:59;63.42;;;26.15;;
30048;SDS011;16879;50.852;15.602;2023-02-15T05:10:25;58.33;;;28.85;;
30048;SDS011;16879;50.852;15.602;2023-02-15T05:12:55;58.10;;;27.15;;
30048;SDS011;16879;50.852;15.602;2023-02-15T05:15:21;55.05;;;27.48;;
30048;SDS011;16879;50.852;15.602;2023-02-15T05:17:47;57.38;;;29.98;;
30048;SDS011;16879;50.852;15.602;2023-02-15T05:20:13;53.45;;;28.60;;
30048;SDS011;16879;50.852;15.602;2023-02-15T05:22:39;64.75;;;29.80;;
30048;SDS011;16879;50.852;15.602;2023-02-15T05:25:06;51.83;;;25.10;;
30048;SDS011;16879;50.852;15.602;2023-02-15T05:27:51;51.67;;;25.65;;
30048;SDS011;16879;50.852;15.602;2023-02-15T05:30:35;47.60;;;25.70;;
30048;SDS011;16879;50.852;15.602;2023-02-15T05:33:01;53.50;;;25.92;;
30048;SDS011;16879;50.852;15.602;2023-02-15T05:35:27;69.13;;;30.20;;
30048;SDS011;16879;50.852;15.602;2023-02-15T05:37:54;58.38;;;28.48;;
30048;SDS011;16879;50.852;15.602;2023-02-15T05:40:20;71.78;;;34.08;;
30048;SDS011;16879;50.852;15.602;2023-02-15T05:42:46;69.90;;;31.70;;
30048;SDS011;16879;50.852;15.602;2023-02-15T05:45:12;86.03;;;38.35;;
30048;SDS011;16879;50.852;15.602;2023-02-15T05:47:38;68.10;;;33.85;;
30048;SDS011;16879;50.852;15.602;2023-02-15T05:50:05;57.85;;;31.45;;
30048;SDS011;16879;50.852;15.602;2023-02-15T05:52:31;62.45;;;28.80;;
30048;SDS011;16879;50.852;15.602;2023-02-15T05:54:57;77.28;;;32.95;;
30048;SDS011;16879;50.852;15.602;2023-02-15T05:57:25;82.75;;;38.05;;
30048;SDS011;16879;50.852;15.602;2023-02-15T05:59:51;76.68;;;30.88;;
30048;SDS011;16879;50.852;15.602;2023-02-15T06:02:17;76.85;;;34.10;;
30048;SDS011;16879;50.852;15.602;2023-02-15T06:04:43;73.75;;;34.30;;
30048;SDS011;16879;50.852;15.602;2023-02-15T06:07:09;94.78;;;43.40;;
30048;SDS011;16879;50.852;15.602;2023-02-15T06:09:35;92.55;;;40.80;;
30048;SDS011;16879;50.852;15.602;2023-02-15T06:12:01;77.72;;;34.25;;
30048;SDS011;16879;50.852;15.602;2023-02-15T06:14:27;79.15;;;36.17;;
30048;SDS011;16879;50.852;15.602;2023-02-15T06:16:53;75.18;;;35.55;;
30048;SDS011;16879;50.852;15.602;2023-02-15T06:19:19;69.70;;;34.30;;
30048;SDS011;16879;50.852;15.602;2023-02-15T06:21:47;82.00;;;38.15;;
30048;SDS011;16879;50.852;15.602;2023-02-15T06:24:13;71.28;;;34.92;;
30048;SDS011;16879;50.852;15.602;2023-02-15T06:26:39;74.22;;;35.15;;
30048;SDS011;16879;50.852;15.602;2023-02-15T06:29:06;73.82;;;33.30;;
30048;SDS011;16879;50.852;15.602;2023-02-15T06:31:32;77.93;;;36.05;;
30048;SDS011;16879;50.852;15.602;2023-02-15T06:33:58;71.85;;;33.72;;
30048;SDS011;16879;50.852;15.602;2023-02-15T06:36:28;81.80;;;38.58;;
30048;SDS011;16879;50.852;15.602;2023-02-15T06:38:55;87.03;;;37.97;;
30048;SDS011;16879;50.852;15.602;2023-02-15T06:41:21;70.43;;;34.83;;
30048;SDS011;16879;50.852;15.602;2023-02-15T06:43:47;80.97;;;35.08;;
30048;SDS011;16879;50.852;15.602;2023-02-15T06:46:14;76.45;;;40.13;;
30048;SDS011;16879;50.852;15.602;2023-02-15T06:48:40;69.63;;;33.58;;
30048;SDS011;16879;50.852;15.602;2023-02-15T06:51:06;80.38;;;36.22;;
30048;SDS011;16879;50.852;15.602;2023-02-15T06:53:33;79.00;;;40.10;;
30048;SDS011;16879;50.852;15.602;2023-02-15T06:56:04;95.28;;;42.65;;
30048;SDS011;16879;50.852;15.602;2023-02-15T06:58:35;93.28;;;42.25;;
30048;SDS011;16879;50.852;15.602;2023-02-15T07:01:01;88.35;;;43.28;;
30048;SDS011;16879;50.852;15.602;2023-02-15T07:03:28;85.53;;;40.00;;
30048;SDS011;16879;50.852;15.602;2023-02-15T07:05:57;95.57;;;43.63;;
30048;SDS011;16879;50.852;15.602;2023-02-15T07:08:28;81.28;;;38.08;;
30048;SDS011;16879;50.852;15.602;2023-02-15T07:11:08;84.80;;;36.88;;
30048;SDS011;16879;50.852;15.602;2023-02-15T07:13:53;77.63;;;35.75;;
30048;SDS011;16879;50.852;15.602;2023-02-15T07:16:19;82.53;;;37.60;;
30048;SDS011;16879;50.852;15.602;2023-02-15T07:18:45;75.38;;;37.28;;
30048;SDS011;16879;50.852;15.602;2023-02-15T07:21:12;71.85;;;33.25;;
30048;SDS011;16879;50.852;15.602;2023-02-15T07:23:44;70.90;;;33.83;;
30048;SDS011;16879;50.852;15.602;2023-02-15T07:26:11;86.43;;;42.63;;
30048;SDS011;16879;50.852;15.602;2023-02-15T07:28:40;89.45;;;43.80;;
30048;SDS011;16879;50.852;15.602;2023-02-15T07:31:06;92.20;;;43.15;;
30048;SDS011;16879;50.852;15.602;2023-02-15T07:33:33;86.22;;;41.95;;
30048;SDS011;16879;50.852;15.602;2023-02-15T07:36:01;105.03;;;49.92;;
30048;SDS011;16879;50.852;15.602;2023-02-15T07:38:30;92.15;;;43.33;;
30048;SDS011;16879;50.852;15.602;2023-02-15T07:41:06;113.47;;;55.35;;
30048;SDS011;16879;50.852;15.602;2023-02-15T07:43:34;123.03;;;56.88;;
30048;SDS011;16879;50.852;15.602;2023-02-15T07:46:01;141.73;;;67.90;;
30048;SDS011;16879;50.852;15.602;2023-02-15T07:48:28;122.65;;;60.08;;
30048;SDS011;16879;50.852;15.602;2023-02-15T07:50:54;133.35;;;68.43;;
30048;SDS011;16879;50.852;15.602;2023-02-15T07:53:24;132.35;;;62.33;;
30048;SDS011;16879;50.852;15.602;2023-02-15T07:55:50;165.68;;;79.72;;
30048;SDS011;16879;50.852;15.602;2023-02-15T07:58:17;155.35;;;78.65;;
30048;SDS011;16879;50.852;15.602;2023-02-15T08:00:44;143.52;;;73.13;;
30048;SDS011;16879;50.852;15.602;2023-02-15T08:03:25;150.35;;;74.25;;
30048;SDS011;16879;50.852;15.602;2023-02-15T08:05:57;169.07;;;89.88;;
30048;SDS011;16879;50.852;15.602;2023-02-15T08:08:24;162.50;;;78.35;;
30048;SDS011;16879;50.852;15.602;2023-02-15T08:11:06;161.73;;;77.57;;
30048;SDS011;16879;50.852;15.602;2023-02-15T08:13:52;143.02;;;73.20;;
30048;SDS011;16879;50.852;15.602;2023-02-15T08:16:32;101.35;;;54.35;;
30048;SDS011;16879;50.852;15.602;2023-02-15T08:18:59;74.70;;;38.60;;
30048;SDS011;16879;50.852;15.602;2023-02-15T08:21:26;74.47;;;38.05;;
30048;SDS011;16879;50.852;15.602;2023-02-15T08:23:53;72.00;;;36.05;;
30048;SDS011;16879;50.852;15.602;2023-02-15T08:26:20;89.43;;;43.67;;
30048;SDS011;16879;50.852;15.602;2023-02-15T08:28:46;107.60;;;48.75;;
30048;SDS011;16879;50.852;15.602;2023-02-15T08:31:14;105.40;;;54.55;;
30048;SDS011;16879;50.852;15.602;2023-02-15T08:33:40;97.55;;;52.08;;
30048;SDS011;16879;50.852;15.602;2023-02-15T08:36:08;107.38;;;56.17;;
30048;SDS011;16879;50.852;15.602;2023-02-15T08:38:35;114.18;;;59.90;;
30048;SDS011;16879;50.852;15.602;2023-02-15T08:41:09;111.72;;;58.40;;
30048;SDS011;16879;50.852;15.602;2023-02-15T08:43:38;114.40;;;55.78;;
30048;SDS011;16879;50.852;15.602;2023-02-15T08:46:05;93.57;;;48.28;;
30048;SDS011;16879;50.852;15.602;2023-02-15T08:48:31;106.35;;;54.20;;
30048;SDS011;16879;50.852;15.602;2023-02-15T08:51:04;82.15;;;43.28;;
30048;SDS011;16879;50.852;15.602;2023-02-15T08:53:31;85.68;;;42.80;;
30048;SDS011;16879;50.852;15.602;2023-02-15T08:55:58;80.93;;;46.30;;
30048;SDS011;16879;50.852;15.602;2023-02-15T08:58:24;87.75;;;43.25;;
30048;SDS011;16879;50.852;15.602;2023-02-15T09:00:51;95.13;;;50.00;;
30048;SDS011;16879;50.852;15.602;2023-02-15T09:03:32;82.57;;;41.70;;
30048;SDS011;16879;50.852;15.602;2023-02-15T09:05:59;84.30;;;42.80;;
30048;SDS011;16879;50.852;15.602;2023-02-15T09:08:26;90.32;;;48.45;;
30048;SDS011;16879;50.852;15.602;2023-02-15T09:10:52;89.60;;;44.78;;
30048;SDS011;16879;50.852;15.602;2023-02-15T09:13:19;85.43;;;45.92;;
30048;SDS011;16879;50.852;15.602;2023-02-15T09:18:24;92.13;;;46.22;;
30048;SDS011;16879;50.852;15.602;2023-02-15T09:20:50;79.28;;;40.70;;
30048;SDS011;16879;50.852;15.602;2023-02-15T09:23:16;73.32;;;38.55;;
30048;SDS011;16879;50.852;15.602;2023-02-15T09:25:42;70.70;;;36.53;;
30048;SDS011;16879;50.852;15.602;2023-02-15T09:28:08;67.97;;;36.20;;
30048;SDS011;16879;50.852;15.602;2023-02-15T09:30:34;55.90;;;32.88;;
30048;SDS011;16879;50.852;15.602;2023-02-15T09:33:00;72.28;;;36.20;;
30048;SDS011;16879;50.852;15.602;2023-02-15T09:35:26;60.83;;;36.08;;
30048;SDS011;16879;50.852;15.602;2023-02-15T09:37:53;78.22;;;40.35;;
30048;SDS011;16879;50.852;15.602;2023-02-15T09:40:19;82.60;;;44.22;;
30048;SDS011;16879;50.852;15.602;2023-02-15T09:42:54;81.30;;;42.88;;
30048;SDS011;16879;50.852;15.602;2023-02-15T09:48:48;92.05;;;48.72;;
30048;SDS011;16879;50.852;15.602;2023-02-15T10:10:19;59.83;;;31.83;;
30048;SDS011;16879;50.852;15.602;2023-02-15T10:15:23;62.20;;;30.85;;
30048;SDS011;16879;50.852;15.602;2023-02-15T10:29:09;47.97;;;24.60;;
30048;SDS011;16879;50.852;15.602;2023-02-15T10:31:45;53.40;;;27.25;;
30048;SDS011;16879;50.852;15.602;2023-02-15T10:34:20;46.67;;;26.40;;
30048;SDS011;16879;50.852;15.602;2023-02-15T10:41:58;48.70;;;25.17;;
30048;SDS011;16879;50.852;15.602;2023-02-15T10:54:56;45.80;;;24.88;;
30048;SDS011;16879;50.852;15.602;2023-02-15T11:00:05;40.35;;;23.13;;
30048;SDS011;16879;50.852;15.602;2023-02-15T11:02:58;51.60;;;26.13;;
30048;SDS011;16879;50.852;15.602;2023-02-15T11:07:57;56.20;;;27.45;;
30048;SDS011;16879;50.852;15.602;2023-02-15T11:13:26;36.22;;;20.65;;
30048;SDS011;16879;50.852;15.602;2023-02-15T11:18:39;37.63;;;20.85;;
30048;SDS011;16879;50.852;15.602;2023-02-15T11:21:13;38.78;;;21.00;;
30048;SDS011;16879;50.852;15.602;2023-02-15T11:23:44;42.03;;;21.75;;
30048;SDS011;16879;50.852;15.602;2023-02-15T11:26:22;38.05;;;20.50;;
30048;SDS011;16879;50.852;15.602;2023-02-15T11:29:11;31.00;;;16.38;;
30048;SDS011;16879;50.852;15.602;2023-02-15T11:31:59;27.05;;;17.17;;
30048;SDS011;16879;50.852;15.602;2023-02-15T11:36:54;32.92;;;16.58;;
30048;SDS011;16879;50.852;15.602;2023-02-15T11:39:24;35.45;;;18.33;;
30048;SDS011;16879;50.852;15.602;2023-02-15T11:41:55;33.67;;;18.65;;
30048;SDS011;16879;50.852;15.602;2023-02-15T11:44:32;29.83;;;16.52;;
30048;SDS011;16879;50.852;15.602;2023-02-15T11:47:01;28.98;;;15.43;;
30048;SDS011;16879;50.852;15.602;2023-02-15T11:49:31;23.70;;;14.43;;
30048;SDS011;16879;50.852;15.602;2023-02-15T11:52:21;25.58;;;13.77;;
30048;SDS011;16879;50.852;15.602;2023-02-15T11:54:50;26.88;;;14.48;;
30048;SDS011;16879;50.852;15.602;2023-02-15T11:57:19;28.50;;;17.40;;
30048;SDS011;16879;50.852;15.602;2023-02-15T11:59:55;26.13;;;15.40;;
30048;SDS011;16879;50.852;15.602;2023-02-15T12:02:26;24.98;;;15.95;;
30048;SDS011;16879;50.852;15.602;2023-02-15T12:05:09;24.52;;;14.48;;
30048;SDS011;16879;50.852;15.602;2023-02-15T12:07:38;25.80;;;15.25;;
30048;SDS011;16879;50.852;15.602;2023-02-15T12:13:11;24.27;;;13.93;;
30048;SDS011;16879;50.852;15.602;2023-02-15T12:15:56;29.05;;;17.42;;
30048;SDS011;16879;50.852;15.602;2023-02-15T12:18:38;33.60;;;18.90;;
30048;SDS011;16879;50.852;15.602;2023-02-15T12:21:13;34.22;;;18.83;;
30048;SDS011;16879;50.852;15.602;2023-02-15T12:23:52;28.73;;;17.83;;
30048;SDS011;16879;50.852;15.602;2023-02-15T12:26:35;29.67;;;18.20;;
30048;SDS011;16879;50.852;15.602;2023-02-15T12:29:16;36.33;;;19.77;;
30048;SDS011;16879;50.852;15.602;2023-02-15T12:31:47;29.92;;;17.15;;
30048;SDS011;16879;50.852;15.602;2023-02-15T12:34:56;37.55;;;21.67;;
30048;SDS011;16879;50.852;15.602;2023-02-15T12:37:31;37.13;;;22.50;;
30048;SDS011;16879;50.852;15.602;2023-02-15T12:40:00;37.70;;;21.73;;
30048;SDS011;16879;50.852;15.602;2023-02-15T12:42:42;39.38;;;20.50;;
30048;SDS011;16879;50.852;15.602;2023-02-15T12:45:29;39.05;;;22.63;;
30048;SDS011;16879;50.852;15.602;2023-02-15T12:48:17;39.03;;;21.88;;
30048;SDS011;16879;50.852;15.602;2023-02-15T12:50:51;42.63;;;24.15;;
30048;SDS011;16879;50.852;15.602;2023-02-15T12:53:33;41.33;;;23.85;;
30048;SDS011;16879;50.852;15.602;2023-02-15T12:56:02;43.17;;;22.20;;
30048;SDS011;16879;50.852;15.602;2023-02-15T12:58:31;41.72;;;23.80;;
30048;SDS011;16879;50.852;15.602;2023-02-15T13:01:22;48.97;;;28.15;;
30048;SDS011;16879;50.852;15.602;2023-02-15T13:04:02;38.80;;;23.20;;
30048;SDS011;16879;50.852;15.602;2023-02-15T13:06:34;47.60;;;26.58;;
30048;SDS011;16879;50.852;15.602;2023-02-15T13:11:46;49.83;;;29.83;;
30048;SDS011;16879;50.852;15.602;2023-02-15T13:16:47;44.03;;;25.85;;
30048;SDS011;16879;50.852;15.602;2023-02-15T13:19:59;62.45;;;35.85;;
30048;SDS011;16879;50.852;15.602;2023-02-15T13:27:23;37.83;;;22.63;;
30048;SDS011;16879;50.852;15.602;2023-02-15T13:29:54;44.78;;;24.95;;
30048;SDS011;16879;50.852;15.602;2023-02-15T13:34:50;38.33;;;22.38;;
30048;SDS011;16879;50.852;15.602;2023-02-15T13:37:33;35.72;;;20.52;;
30048;SDS011;16879;50.852;15.602;2023-02-15T13:40:25;34.35;;;19.52;;
30048;SDS011;16879;50.852;15.602;2023-02-15T13:46:00;39.42;;;21.95;;
30048;SDS011;16879;50.852;15.602;2023-02-15T13:48:40;47.25;;;27.95;;
30048;SDS011;16879;50.852;15.602;2023-02-15T13:59:53;26.52;;;17.10;;
30048;SDS011;16879;50.852;15.602;2023-02-15T14:05:06;31.60;;;19.98;;
30048;SDS011;16879;50.852;15.602;2023-02-15T14:08:11;74.38;;;42.60;;
30048;SDS011;16879;50.852;15.602;2023-02-15T14:10:44;84.07;;;48.67;;
30048;SDS011;16879;50.852;15.602;2023-02-15T14:15:44;39.55;;;25.17;;
30048;SDS011;16879;50.852;15.602;2023-02-15T14:18:20;35.58;;;23.17;;
30048;SDS011;16879;50.852;15.602;2023-02-15T14:26:24;73.90;;;37.05;;
30048;SDS011;16879;50.852;15.602;2023-02-15T14:32:10;60.72;;;34.63;;
30048;SDS011;16879;50.852;15.602;2023-02-15T14:34:42;54.35;;;31.70;;
30048;SDS011;16879;50.852;15.602;2023-02-15T14:37:16;55.58;;;34.53;;
30048;SDS011;16879;50.852;15.602;2023-02-15T14:39:56;61.05;;;33.50;;
30048;SDS011;16879;50.852;15.602;2023-02-15T14:43:15;110.50;;;51.08;;
30048;SDS011;16879;50.852;15.602;2023-02-15T14:48:47;71.38;;;36.25;;
30048;SDS011;16879;50.852;15.602;2023-02-15T14:51:53;51.03;;;28.00;;
30048;SDS011;16879;50.852;15.602;2023-02-15T14:54:09;51.35;;;30.88;;
30048;SDS011;16879;50.852;15.602;2023-02-15T14:56:35;48.92;;;28.65;;
30048;SDS011;16879;50.852;15.602;2023-02-15T15:13:00;163.73;;;78.13;;
30048;SDS011;16879;50.852;15.602;2023-02-15T15:15:49;302.30;;;178.80;;
30048;SDS011;16879;50.852;15.602;2023-02-15T15:27:47;155.38;;;87.72;;
30048;SDS011;16879;50.852;15.602;2023-02-15T15:30:48;201.93;;;105.70;;
30048;SDS011;16879;50.852;15.602;2023-02-15T15:35:35;165.35;;;86.40;;
30048;SDS011;16879;50.852;15.602;2023-02-15T15:49:20;105.75;;;54.28;;
30048;SDS011;16879;50.852;15.602;2023-02-15T15:51:47;111.32;;;54.63;;
30048;SDS011;16879;50.852;15.602;2023-02-15T15:54:21;228.82;;;80.75;;
30048;SDS011;16879;50.852;15.602;2023-02-15T15:56:51;196.35;;;77.28;;
30048;SDS011;16879;50.852;15.602;2023-02-15T15:59:22;163.43;;;69.90;;
30048;SDS011;16879;50.852;15.602;2023-02-15T16:04:50;206.70;;;81.07;;
30048;SDS011;16879;50.852;15.602;2023-02-15T16:09:56;167.18;;;65.13;;
30048;SDS011;16879;50.852;15.602;2023-02-15T16:12:29;167.35;;;67.28;;
30048;SDS011;16879;50.852;15.602;2023-02-15T16:14:57;167.30;;;70.97;;
30048;SDS011;16879;50.852;15.602;2023-02-15T16:17:43;146.98;;;65.32;;
30048;SDS011;16879;50.852;15.602;2023-02-15T16:20:14;144.32;;;64.57;;
30048;SDS011;16879;50.852;15.602;2023-02-15T16:22:44;162.07;;;71.18;;
30048;SDS011;16879;50.852;15.602;2023-02-15T16:28:16;285.33;;;107.63;;
30048;SDS011;16879;50.852;15.602;2023-02-15T16:30:45;267.45;;;118.07;;
30048;SDS011;16879;50.852;15.602;2023-02-15T16:33:12;268.50;;;110.80;;
30048;SDS011;16879;50.852;15.602;2023-02-15T16:36:02;222.30;;;91.60;;
30048;SDS011;16879;50.852;15.602;2023-02-15T16:41:08;145.48;;;71.15;;
30048;SDS011;16879;50.852;15.602;2023-02-15T16:43:35;160.35;;;80.70;;
30048;SDS011;16879;50.852;15.602;2023-02-15T16:46:08;147.13;;;72.07;;
30048;SDS011;16879;50.852;15.602;2023-02-15T16:48:43;151.73;;;77.60;;
30048;SDS011;16879;50.852;15.602;2023-02-15T16:51:09;172.93;;;87.60;;
30048;SDS011;16879;50.852;15.602;2023-02-15T16:53:36;198.15;;;98.18;;
30048;SDS011;16879;50.852;15.602;2023-02-15T16:56:03;204.45;;;96.05;;
30048;SDS011;16879;50.852;15.602;2023-02-15T16:58:37;198.00;;;95.28;;
30048;SDS011;16879;50.852;15.602;2023-02-15T17:01:13;211.15;;;107.10;;
30048;SDS011;16879;50.852;15.602;2023-02-15T17:03:40;208.77;;;104.47;;
30048;SDS011;16879;50.852;15.602;2023-02-15T17:06:26;213.15;;;106.65;;
30048;SDS011;16879;50.852;15.602;2023-02-15T17:09:16;239.77;;;107.43;;
30048;SDS011;16879;50.852;15.602;2023-02-15T17:11:44;237.55;;;101.47;;
30048;SDS011;16879;50.852;15.602;2023-02-15T17:14:12;178.07;;;84.03;;
30048;SDS011;16879;50.852;15.602;2023-02-15T17:16:43;194.82;;;92.60;;
30048;SDS011;16879;50.852;15.602;2023-02-15T17:21:49;144.88;;;74.25;;
30048;SDS011;16879;50.852;15.602;2023-02-15T17:24:19;104.00;;;58.75;;
30048;SDS011;16879;50.852;15.602;2023-02-15T17:26:53;156.45;;;86.32;;
30048;SDS011;16879;50.852;15.602;2023-02-15T17:29:39;227.15;;;107.45;;
30048;SDS011;16879;50.852;15.602;2023-02-15T17:32:12;540.90;;;249.98;;
30048;SDS011;16879;50.852;15.602;2023-02-15T17:34:43;178.27;;;87.18;;
30048;SDS011;16879;50.852;15.602;2023-02-15T17:37:22;202.13;;;107.38;;
30048;SDS011;16879;50.852;15.602;2023-02-15T17:42:48;149.77;;;74.07;;
30048;SDS011;16879;50.852;15.602;2023-02-15T17:45:15;181.93;;;98.03;;
30048;SDS011;16879;50.852;15.602;2023-02-15T17:47:41;169.57;;;83.57;;